Green Ice — C6SO4 — position and weather

sailwx.info

Track history (hours):
 
Tides and Currents Weather Stations Pressure Air Temp Water Temp Dewpoint Dewpoint Depression Visibility Wind Speed Wind Dir Waves Ship Positions

Green Ice

Last reported at 2016-Jun-24 11:10 UTC. Time now 2016-Jun-27 20:24 UTC.
Position N 55°36' E 018°20'.

Length 86 m; draft 6 m.

Type: Cargo ship. MMSI: 311411000.

Date/timePositionNaut miles runAvg speedWind from/ knotsBaromVisibWave heightAir tempDewpointWater temp
2016-Jun-24 11:10N 55°36' E 018°20'813.3
2016-Jun-24 10:33N 55°35' E 018°06'1413.2
2016-Jun-24 09:32N 55°34' E 017°42'6713.5
2016-Jun-24 04:33N 55°27' E 015°44'1313.4
2016-Jun-24 03:33N 55°26' E 015°20'1312.9
2016-Jun-24 02:33N 55°24' E 014°58'1313.0
2016-Jun-24 01:33N 55°21' E 014°36'1313.3
2016-Jun-24 00:34N 55°11' E 014°19'2812.7
2016-Jun-23 22:20N 55°13' E 013°30'2412.5
2016-Jun-23 20:23N 55°16' E 012°48'810.0
2016-Jun-23 19:33N 55°22' E 012°39'1111.4
2016-Jun-23 18:34N 55°34' E 012°42'10 9.8
2016-Jun-23 17:34N 55°43' E 012°41'1111.5
2016-Jun-23 16:33N 55°55' E 012°39'1110.8
2016-Jun-23 15:33N 56°05' E 012°35'1212.0
2016-Jun-23 14:33N 56°12' E 012°17'3712.4
2016-Jun-23 11:33N 56°47' E 011°51'1313.1
2016-Jun-23 10:34N 56°59' E 011°43'1313.0
2016-Jun-23 09:33N 57°12' E 011°39'1313.1
2016-Jun-23 08:34N 57°25' E 011°38'1110.6
2016-Jun-23 07:34N 57°36' E 011°40'0 0.0
2016-Jun-23 05:33N 57°36' E 011°40'10 9.6
2016-Jun-23 04:33N 57°39' E 011°23'1312.8
2016-Jun-23 03:33N 57°44' E 011°01'1312.8
2016-Jun-23 02:33N 57°47' E 010°38'2914.1
2016-Jun-23 00:28N 57°37' E 009°47'1313.6
2016-Jun-22 23:30N 57°31' E 009°25'1413.4
2016-Jun-22 22:26N 57°23' E 009°03'9813.5
2016-Jun-22 15:12N 56°02' E 007°23'2413.6
2016-Jun-22 13:25N 55°41' E 007°02'2613.4
2016-Jun-22 11:30N 55°18' E 006°42'7313.6
2016-Jun-22 06:07N 54°20' E 005°23'913.5
2016-Jun-22 05:29N 54°13' E 005°15'1313.4
2016-Jun-22 04:33N 54°02' E 005°06'1313.1
2016-Jun-22 03:33N 53°50' E 004°58'1412.9
2016-Jun-22 02:26N 53°36' E 004°49'2312.4
2016-Jun-22 00:33N 53°15' E 004°33'1212.7
2016-Jun-21 23:33N 53°04' E 004°24'1712.7
2016-Jun-21 22:15N 52°48' E 004°12'811.2
2016-Jun-21 21:30N 52°41' E 004°07'1010.8
2016-Jun-21 20:33N 52°31' E 004°13'1211.6
2016-Jun-21 19:33N 52°28' E 004°31'3 3.3
2016-Jun-21 18:34N 52°28' E 004°37'2 1.8
2016-Jun-21 17:33N 52°28' E 004°40'0 0.3
2016-Jun-21 16:33N 52°28' E 004°40'0 0.0
2016-Jun-21 15:33N 52°28' E 004°40'0 0.0
2016-Jun-21 14:33N 52°28' E 004°40'0 0.0
2016-Jun-21 13:33N 52°28' E 004°40'0 0.0
2016-Jun-21 12:33N 52°28' E 004°40'0 0.0
2016-Jun-21 11:33N 52°28' E 004°40'0 0.0
2016-Jun-21 10:30N 52°28' E 004°40'0 0.0
2016-Jun-21 09:33N 52°28' E 004°40'0 0.0
2016-Jun-21 08:33N 52°28' E 004°40'0 0.0
2016-Jun-21 07:33N 52°28' E 004°40'0 0.0
2016-Jun-21 04:33N 52°28' E 004°40'0 0.0
2016-Jun-21 03:33N 52°28' E 004°40'0 0.0
2016-Jun-21 02:33N 52°28' E 004°40'0 0.0
2016-Jun-21 01:33N 52°28' E 004°40'0 0.0
2016-Jun-21 00:33N 52°28' E 004°40'0 0.0
2016-Jun-20 23:33N 52°28' E 004°40'0 0.0
2016-Jun-20 22:32N 52°28' E 004°40'0 0.0
2016-Jun-20 21:32N 52°28' E 004°40'0 0.0
2016-Jun-20 20:32N 52°28' E 004°40'0 0.0
2016-Jun-20 19:32N 52°28' E 004°40'0 0.0
2016-Jun-20 18:32N 52°28' E 004°40'0 0.0
2016-Jun-20 16:29N 52°28' E 004°40'0 0.0
2016-Jun-20 15:32N 52°28' E 004°40'0 0.0
2016-Jun-20 14:29N 52°28' E 004°40'0 0.0
2016-Jun-20 13:32N 52°28' E 004°40'0 0.0
2016-Jun-20 12:33N 52°28' E 004°40'0 0.0
2016-Jun-20 11:34N 52°28' E 004°40'0 0.0
2016-Jun-20 10:33N 52°28' E 004°40'2 2.4
2016-Jun-20 09:34N 52°28' E 004°36'4 4.3
2016-Jun-20 08:33N 52°28' E 004°29'1010.2
2016-Jun-20 07:33N 52°29' E 004°12'1110.4
2016-Jun-20 06:30N 52°39' E 004°03'6510.1
2016-Jun-20 00:05N 53°39' E 004°41'2012.1
2016-Jun-19 22:28N 53°58' E 004°53'1112.1
2016-Jun-19 21:32N 54°09' E 004°58'1212.2
2016-Jun-19 20:33N 54°20' E 005°02'22812.5
2016-Jun-19 02:19N 58°06' E 005°57'1113.5
2016-Jun-19 01:31N 58°17' E 005°59'1010.3
2016-Jun-19 00:33N 58°26' E 005°59'0 0.0
2016-Jun-18 23:33N 58°26' E 005°59'0 0.0
2016-Jun-18 22:33N 58°26' E 005°59'0 0.0
2016-Jun-18 21:33N 58°26' E 005°59'0 0.0
2016-Jun-18 20:33N 58°26' E 005°59'0 0.2
2016-Jun-18 19:33N 58°26' E 005°59'5 4.9
2016-Jun-18 18:33N 58°25' E 005°50'1413.9
2016-Jun-18 17:33N 58°35' E 005°31'1313.4
2016-Jun-18 16:34N 58°46' E 005°17'1312.7
2016-Jun-18 15:33N 58°57' E 005°03'1312.7
2016-Jun-18 14:33N 59°08' E 004°50'18012.9
2016-Jun-18 00:31N 62°08' E 004°50'1313.2
2016-Jun-17 23:33N 62°19' E 005°03'125 8.9
2016-Jun-17 09:33N 63°59' E 007°51'  
2016-Jun-14 18:12N 67°29' E 014°14'711.4
2016-Jun-14 17:34N 67°24' E 014°26'6 6.0
2016-Jun-14 16:33N 67°18' E 014°23'0 0.0
2016-Jun-14 15:29N 67°18' E 014°23'0 0.0
2016-Jun-14 14:32N 67°18' E 014°23'0 0.0
2016-Jun-14 13:32N 67°18' E 014°23'0 0.0
2016-Jun-14 12:32N 67°18' E 014°23'0 0.0
2016-Jun-14 11:32N 67°18' E 014°23'  
Track history (hours):
 
Tides and Currents Weather Stations Pressure Air Temp Water Temp Dewpoint Dewpoint Depression Visibility Wind Speed Wind Dir Waves Ship Positions

Green Ice

Last reported at 2016-Jun-24 11:10 UTC. Time now 2016-Jun-27 20:24 UTC.
Position N 55°36' E 018°20'.

Length 86 m; draft 6 m.

Type: Cargo ship. MMSI: 311411000.

Date/timePositionNaut miles runAvg speedWind from/ knotsBaromVisibWave heightAir tempDewpointWater temp
2016-Jun-24 11:10N 55°36' E 018°20'813.3
2016-Jun-24 10:33N 55°35' E 018°06'1413.2
2016-Jun-24 09:32N 55°34' E 017°42'6713.5
2016-Jun-24 04:33N 55°27' E 015°44'1313.4
2016-Jun-24 03:33N 55°26' E 015°20'1312.9
2016-Jun-24 02:33N 55°24' E 014°58'1313.0
2016-Jun-24 01:33N 55°21' E 014°36'1313.3
2016-Jun-24 00:34N 55°11' E 014°19'2812.7
2016-Jun-23 22:20N 55°13' E 013°30'2412.5
2016-Jun-23 20:23N 55°16' E 012°48'810.0
2016-Jun-23 19:33N 55°22' E 012°39'1111.4
2016-Jun-23 18:34N 55°34' E 012°42'10 9.8
2016-Jun-23 17:34N 55°43' E 012°41'1111.5
2016-Jun-23 16:33N 55°55' E 012°39'1110.8
2016-Jun-23 15:33N 56°05' E 012°35'1212.0
2016-Jun-23 14:33N 56°12' E 012°17'3712.4
2016-Jun-23 11:33N 56°47' E 011°51'1313.1
2016-Jun-23 10:34N 56°59' E 011°43'1313.0
2016-Jun-23 09:33N 57°12' E 011°39'1313.1
2016-Jun-23 08:34N 57°25' E 011°38'1110.6
2016-Jun-23 07:34N 57°36' E 011°40'0 0.0
2016-Jun-23 05:33N 57°36' E 011°40'10 9.6
2016-Jun-23 04:33N 57°39' E 011°23'1312.8
2016-Jun-23 03:33N 57°44' E 011°01'1312.8
2016-Jun-23 02:33N 57°47' E 010°38'2914.1
2016-Jun-23 00:28N 57°37' E 009°47'1313.6
2016-Jun-22 23:30N 57°31' E 009°25'1413.4
2016-Jun-22 22:26N 57°23' E 009°03'9813.5
2016-Jun-22 15:12N 56°02' E 007°23'2413.6
2016-Jun-22 13:25N 55°41' E 007°02'2613.4
2016-Jun-22 11:30N 55°18' E 006°42'7313.6
2016-Jun-22 06:07N 54°20' E 005°23'913.5
2016-Jun-22 05:29N 54°13' E 005°15'1313.4
2016-Jun-22 04:33N 54°02' E 005°06'1313.1
2016-Jun-22 03:33N 53°50' E 004°58'1412.9
2016-Jun-22 02:26N 53°36' E 004°49'2312.4
2016-Jun-22 00:33N 53°15' E 004°33'1212.7
2016-Jun-21 23:33N 53°04' E 004°24'1712.7
2016-Jun-21 22:15N 52°48' E 004°12'811.2
2016-Jun-21 21:30N 52°41' E 004°07'1010.8
2016-Jun-21 20:33N 52°31' E 004°13'1211.6
2016-Jun-21 19:33N 52°28' E 004°31'3 3.3
2016-Jun-21 18:34N 52°28' E 004°37'2 1.8
2016-Jun-21 17:33N 52°28' E 004°40'0 0.3
2016-Jun-21 16:33N 52°28' E 004°40'0 0.0
2016-Jun-21 15:33N 52°28' E 004°40'0 0.0
2016-Jun-21 14:33N 52°28' E 004°40'0 0.0
2016-Jun-21 13:33N 52°28' E 004°40'0 0.0
2016-Jun-21 12:33N 52°28' E 004°40'0 0.0
2016-Jun-21 11:33N 52°28' E 004°40'0 0.0
2016-Jun-21 10:30N 52°28' E 004°40'0 0.0
2016-Jun-21 09:33N 52°28' E 004°40'0 0.0
2016-Jun-21 08:33N 52°28' E 004°40'0 0.0
2016-Jun-21 07:33N 52°28' E 004°40'0 0.0
2016-Jun-21 04:33N 52°28' E 004°40'0 0.0
2016-Jun-21 03:33N 52°28' E 004°40'0 0.0
2016-Jun-21 02:33N 52°28' E 004°40'0 0.0
2016-Jun-21 01:33N 52°28' E 004°40'0 0.0
2016-Jun-21 00:33N 52°28' E 004°40'0 0.0
2016-Jun-20 23:33N 52°28' E 004°40'0 0.0
2016-Jun-20 22:32N 52°28' E 004°40'0 0.0
2016-Jun-20 21:32N 52°28' E 004°40'0 0.0
2016-Jun-20 20:32N 52°28' E 004°40'0 0.0
2016-Jun-20 19:32N 52°28' E 004°40'0 0.0
2016-Jun-20 18:32N 52°28' E 004°40'0 0.0
2016-Jun-20 16:29N 52°28' E 004°40'0 0.0
2016-Jun-20 15:32N 52°28' E 004°40'0 0.0
2016-Jun-20 14:29N 52°28' E 004°40'0 0.0
2016-Jun-20 13:32N 52°28' E 004°40'0 0.0
2016-Jun-20 12:33N 52°28' E 004°40'0 0.0
2016-Jun-20 11:34N 52°28' E 004°40'0 0.0
2016-Jun-20 10:33N 52°28' E 004°40'2 2.4
2016-Jun-20 09:34N 52°28' E 004°36'4 4.3
2016-Jun-20 08:33N 52°28' E 004°29'1010.2
2016-Jun-20 07:33N 52°29' E 004°12'1110.4
2016-Jun-20 06:30N 52°39' E 004°03'6510.1
2016-Jun-20 00:05N 53°39' E 004°41'2012.1
2016-Jun-19 22:28N 53°58' E 004°53'1112.1
2016-Jun-19 21:32N 54°09' E 004°58'1212.2
2016-Jun-19 20:33N 54°20' E 005°02'22812.5
2016-Jun-19 02:19N 58°06' E 005°57'1113.5
2016-Jun-19 01:31N 58°17' E 005°59'1010.3
2016-Jun-19 00:33N 58°26' E 005°59'0 0.0
2016-Jun-18 23:33N 58°26' E 005°59'0 0.0
2016-Jun-18 22:33N 58°26' E 005°59'0 0.0
2016-Jun-18 21:33N 58°26' E 005°59'0 0.0
2016-Jun-18 20:33N 58°26' E 005°59'0 0.2
2016-Jun-18 19:33N 58°26' E 005°59'5 4.9
2016-Jun-18 18:33N 58°25' E 005°50'1413.9
2016-Jun-18 17:33N 58°35' E 005°31'1313.4
2016-Jun-18 16:34N 58°46' E 005°17'1312.7
2016-Jun-18 15:33N 58°57' E 005°03'1312.7
2016-Jun-18 14:33N 59°08' E 004°50'18012.9
2016-Jun-18 00:31N 62°08' E 004°50'1313.2
2016-Jun-17 23:33N 62°19' E 005°03'125 8.9
2016-Jun-17 09:33N 63°59' E 007°51'  
2016-Jun-14 18:12N 67°29' E 014°14'711.4
2016-Jun-14 17:34N 67°24' E 014°26'6 6.0
2016-Jun-14 16:33N 67°18' E 014°23'0 0.0
2016-Jun-14 15:29N 67°18' E 014°23'0 0.0
2016-Jun-14 14:32N 67°18' E 014°23'0 0.0
2016-Jun-14 13:32N 67°18' E 014°23'0 0.0
2016-Jun-14 12:32N 67°18' E 014°23'0 0.0
2016-Jun-14 11:32N 67°18' E 014°23'  

Dump ship's entire track history